Bei Facebook empfehlenBei Twitter postenGoogle plusPinterest

Das Wetter im Erzgebirge am 29.03.2016

Wetter und Klima am 29.03.2016 Holzhau im Erzgebirge (630m ü.NN)
Letzte gemessene Temperatur und Uhrzeit der Messung23:45:00 Uhr1.80 °C
Temperatur (Maximum / Höchstwert) und Uhrzeit der Messung15:30:00 Uhr9.80 °C
Temperatur (Minimum / Tiefstwert) und Uhrzeit der Messung22:00:00-0.70 °C
Errechneter Absolutwert der Temperaturschwankungen zwischen Tmin und Tmax des Tages10.50 K
Errechnete Tagesmitteltemperatur4.86667 °C
Gesamt - Niederschlag des Tages (in flüssiger Form)1.04 Liter / m²
Luftdruck (Maximum / Höchstwert) und Zeitpunkt der Messung22:30:00 Uhr1008.80 hPa
Luftdruck (Minimum / Tiefstwert) und Zeitpunkt der Messung04:00:00 Uhr1000.40 hPa
Errechneter Absolutwert der Luftdruckschwankungen des Tages8.40 hPa
Höchste gemessene Windgeschwindigkeit und Uhrzeit der Messung23:45:00 Uhr0.00 km/h
Errechnete Windhäufigkeit in Relation zu den Messwerten des Tages0.00000 %
Niedrigste Windkühle (Windchill) und Zeitpunkt der Messung22:00:00 Uhr-0.70 °C
Taupunkt (Maximum / Höchstwert) und Uhrzeit der Messung08:00:00 Uhr2.90 °C
Taupunkt (Minimum / Tiefstwert) und Uhrzeit der Messung21:15:00-4.20 °C
Anzahl der automatisch eingelesenen Messwerte 96

Detaillierte Wetter- und Klima- Messwerte für den 29.03.2016 in Holzhau im Erzgebirge (630m ü.NN)
ZeitTemperaturLuftdruckRel. LuftfeuchteWindWindrichtungWindchillTaupunktNiederschlag l/m²
23:45:001.80 °C1008.40 hPa84.00 %-0.60 °C1.04
23:30:001.90 °C1008.50 hPa84.00 %-0.50 °C1.04
23:15:002.10 °C1008.50 hPa83.00 %-0.50 °C1.04
23:00:002.50 °C1008.40 hPa83.00 %-0.10 °C1.04
22:45:003.10 °C1008.30 hPa84.00 %0.70 °C1.04
22:30:001.40 °C1008.80 hPa85.00 %-0.80 °C1.04
22:15:00-0.60 °C1008.30 hPa81.00 %-3.80 °C1.04
22:00:00-0.70 °C1008.10 hPa81.00 %-3.90 °C1.04
21:45:00-0.60 °C1007.90 hPa80.00 %-4.00 °C1.04
21:30:00-0.40 °C1008.00 hPa79.00 %-4.00 °C1.04
21:15:00-0.40 °C1007.90 hPa78.00 %-4.20 °C1.04
21:00:00-0.20 °C1007.90 hPa77.00 %-4.20 °C1.04
20:45:000.10 °C1007.70 hPa76.00 %-3.60 °C1.04
20:30:000.70 °C1007.70 hPa74.00 %-3.40 °C1.04
20:15:001.10 °C1007.80 hPa73.00 %-3.20 °C1.04
20:00:001.40 °C1007.60 hPa71.00 %-3.30 °C1.04
19:45:002.10 °C1007.40 hPa69.00 %-3.00 °C1.04
19:30:002.90 °C1007.10 hPa67.00 %-2.60 °C1.04
19:15:003.90 °C1007.10 hPa65.00 %-2.10 °C1.04
19:00:004.80 °C1006.90 hPa64.00 %-1.40 °C1.04
18:45:005.50 °C1006.90 hPa62.00 %-1.20 °C1.04
18:30:005.70 °C1006.90 hPa61.00 %-1.20 °C1.04
18:15:006.10 °C1006.70 hPa60.00 %-1.10 °C1.04
18:00:006.50 °C1006.70 hPa58.00 %-1.20 °C1.04
17:45:007.10 °C1006.50 hPa57.00 %-0.80 °C1.04
17:30:007.40 °C1006.60 hPa57.00 %-0.50 °C1.04
17:15:007.60 °C1006.50 hPa57.00 %-0.40 °C1.04
17:00:008.10 °C1006.40 hPa57.00 %0.10 °C1.04
16:45:007.80 °C1006.40 hPa57.00 %-0.20 °C1.04
16:30:008.30 °C1006.20 hPa55.00 %-0.20 °C1.04
16:15:009.10 °C1006.20 hPa56.00 %0.80 °C1.04
16:00:008.60 °C1006.10 hPa55.00 %0.10 °C1.04
15:45:008.80 °C1006.00 hPa54.00 %0.00 °C1.04
15:30:009.80 °C1005.80 hPa54.00 %0.90 °C1.04
15:15:009.10 °C1005.90 hPa57.00 %1.00 °C1.04
15:00:008.80 °C1005.90 hPa58.00 %1.00 °C1.04
14:45:008.30 °C1006.00 hPa59.00 %0.80 °C1.04
14:30:008.20 °C1006.00 hPa59.00 %0.70 °C1.04
14:15:008.10 °C1006.10 hPa60.00 %0.80 °C1.04
14:00:008.20 °C1006.10 hPa60.00 %0.90 °C1.04
13:45:008.40 °C1005.80 hPa60.00 %1.10 °C1.04
13:30:008.50 °C1005.80 hPa59.00 %1.00 °C1.04
13:15:008.90 °C1005.60 hPa60.00 %1.60 °C1.04
13:00:008.20 °C1005.50 hPa64.00 %1.80 °C1.04
12:45:008.10 °C1005.30 hPa62.00 %1.30 °C1.04
12:30:008.20 °C1005.30 hPa63.00 %1.60 °C1.04
12:15:008.10 °C1005.30 hPa64.00 %1.70 °C1.04
12:00:008.20 °C1005.30 hPa66.00 %2.20 °C1.04
11:45:008.30 °C1005.20 hPa65.00 %2.10 °C1.04
11:30:008.20 °C1005.00 hPa65.00 %2.00 °C1.04
11:15:007.90 °C1005.00 hPa67.00 %2.20 °C1.04
11:00:006.60 °C1004.90 hPa68.00 %1.10 °C1.04
10:45:006.90 °C1004.80 hPa67.00 %1.20 °C1.04
10:30:006.80 °C1004.60 hPa70.00 %1.70 °C1.04
10:15:006.50 °C1004.40 hPa70.00 %1.40 °C1.04
10:00:006.40 °C1004.40 hPa74.00 %2.10 °C1.04
09:45:005.90 °C1004.40 hPa75.00 %1.80 °C1.04
09:30:006.10 °C1004.10 hPa78.00 %2.60 °C1.04
09:15:005.10 °C1004.10 hPa81.00 %2.10 °C1.04
09:00:004.90 °C1004.00 hPa81.00 %1.90 °C1.04
08:45:004.90 °C1003.70 hPa82.00 %2.10 °C1.04
08:30:004.90 °C1003.60 hPa85.00 %2.60 °C1.04
08:15:004.80 °C1003.20 hPa86.00 %2.70 °C1.04
08:00:004.60 °C1003.20 hPa89.00 %2.90 °C1.04
07:45:004.40 °C1002.80 hPa90.00 %2.90 °C1.04
07:30:004.20 °C1002.70 hPa90.00 %2.70 °C1.04
07:15:003.90 °C1002.50 hPa91.00 %2.60 °C1.04
07:00:003.60 °C1002.50 hPa91.00 %2.30 °C1.04
06:45:003.60 °C1002.30 hPa91.00 %2.30 °C1.04
06:30:003.50 °C1002.00 hPa91.00 %2.20 °C1.04
06:15:003.40 °C1001.70 hPa91.00 %2.10 °C1.04
06:00:003.50 °C1001.50 hPa91.00 %2.20 °C1.04
05:45:003.50 °C1001.40 hPa91.00 %2.20 °C1.04
05:30:003.40 °C1001.30 hPa91.00 %2.10 °C1.04
05:15:003.50 °C1001.30 hPa91.00 %2.20 °C1.04
05:00:003.80 °C1001.40 hPa90.00 %2.30 °C1.04
04:45:004.20 °C1001.40 hPa90.00 %2.70 °C1.04
04:30:004.10 °C1000.80 hPa90.00 %2.60 °C 
04:15:003.60 °C1000.60 hPa90.00 %2.10 °C 
04:00:003.30 °C1000.40 hPa89.00 %1.70 °C 
03:45:003.30 °C1000.40 hPa89.00 %1.70 °C 
03:30:003.60 °C1000.70 hPa89.00 %2.00 °C 
03:15:003.80 °C1000.80 hPa89.00 %2.20 °C 
03:00:003.60 °C1000.80 hPa89.00 %2.00 °C 
02:45:003.50 °C1000.80 hPa89.00 %1.90 °C 
02:30:003.60 °C1001.10 hPa89.00 %2.00 °C 
02:15:003.80 °C1001.30 hPa89.00 %2.20 °C 
02:00:003.60 °C1000.80 hPa89.00 %2.00 °C 
01:45:003.70 °C1001.00 hPa88.00 %1.90 °C 
01:30:003.60 °C1001.20 hPa88.00 %1.80 °C 
01:15:003.30 °C1001.10 hPa88.00 %1.50 °C 
01:00:003.40 °C1001.10 hPa87.00 %1.40 °C 
00:45:003.60 °C1001.20 hPa87.00 %1.60 °C 
00:30:003.80 °C1001.00 hPa87.00 %1.80 °C 
00:15:004.10 °C1000.70 hPa87.00 %2.10 °C 
00:00:004.00 °C1000.80 hPa87.00 %2.00 °C 

Permanenter Link zu dieser Seite: Wetter im Erzgebirge am 29.03.2016
Performance-Info: Die Erstellung der Seite / Statistik(en) / Tabelle(n) erforderte 5 Datenbankserver-Abfrage(n) und dauerte 79 Millisekunden. (Dieser Messwert ist von der Gesamt-Auslastung des Servers abhängig.)
Erzgebirge - Wetter | Erzgebirge - Wetter (Mobilgeräte) | Komplette Klimadatenbank